Armstrong Mills, Ohio
Current Conditions -  °F | °C
As of 9:18 AM on Friday 24 Oct 2014 (Local Time) from KHLG Reporting Station
Moderate Fog Moderate Fog  
Wind Chill:   Ceiling: 100
Heat Index:   Visibility: 0mi
Dew Point:   Wind: 0mph
Humidity: 97%   Direction: NA
Pressure: 30.12"   Gusts: NA
Location:  39.9375°N, 80.8976°W
Report Text: KHLG 241318Z 00000KT M1/4SM R03/0600V1800FT FG VV001 03/03 A3012 RMK AO2 T00330028
Loading
Personal Weather Stations






























Interactive Weather Map
Tropical Storm Tracking
New forecast layout! Learn more

10-Day Weather Forecast

Advertisements
Track Severe Weather on mobile